sensor_id;sensor_type;location;lat;lon;timestamp;pressure;altitude;pressure_sealevel;temperature;humidity
21730;BME280;11027;51.030;13.812;2023-01-19T00:01:33;99014.72;;;0.04;82.48
21730;BME280;11027;51.030;13.812;2023-01-19T00:03:59;99017.53;;;0.02;82.61
21730;BME280;11027;51.030;13.812;2023-01-19T00:06:24;99013.16;;;0.01;82.35
21730;BME280;11027;51.030;13.812;2023-01-19T00:08:49;99013.44;;;-0.02;82.31
21730;BME280;11027;51.030;13.812;2023-01-19T00:11:15;99018.78;;;-0.02;82.11
21730;BME280;11027;51.030;13.812;2023-01-19T00:13:43;99024.13;;;-0.02;81.90
21730;BME280;11027;51.030;13.812;2023-01-19T00:16:15;99023.44;;;-0.04;81.71
21730;BME280;11027;51.030;13.812;2023-01-19T00:18:44;99028.66;;;-0.03;81.40
21730;BME280;11027;51.030;13.812;2023-01-19T00:21:10;99020.94;;;-0.06;81.29
21730;BME280;11027;51.030;13.812;2023-01-19T00:23:36;99026.41;;;-0.07;81.02
21730;BME280;11027;51.030;13.812;2023-01-19T00:26:01;99029.09;;;-0.07;80.76
21730;BME280;11027;51.030;13.812;2023-01-19T00:28:27;99033.03;;;-0.11;80.77
21730;BME280;11027;51.030;13.812;2023-01-19T00:30:52;99044.00;;;-0.14;80.70
21730;BME280;11027;51.030;13.812;2023-01-19T00:33:18;99045.00;;;-0.15;80.73
21730;BME280;11027;51.030;13.812;2023-01-19T00:35:43;99040.63;;;-0.16;80.73
21730;BME280;11027;51.030;13.812;2023-01-19T00:38:10;99050.63;;;-0.18;80.71
21730;BME280;11027;51.030;13.812;2023-01-19T00:40:36;99054.19;;;-0.18;80.67
21730;BME280;11027;51.030;13.812;2023-01-19T00:43:01;99050.91;;;-0.22;80.56
21730;BME280;11027;51.030;13.812;2023-01-19T00:45:27;99051.19;;;-0.25;80.51
21730;BME280;11027;51.030;13.812;2023-01-19T00:47:52;99056.53;;;-0.25;80.43
21730;BME280;11027;51.030;13.812;2023-01-19T00:50:21;99064.16;;;-0.30;80.47
21730;BME280;11027;51.030;13.812;2023-01-19T00:52:47;99063.44;;;-0.32;80.28
21730;BME280;11027;51.030;13.812;2023-01-19T00:55:14;99075.53;;;-0.37;80.16
21730;BME280;11027;51.030;13.812;2023-01-19T00:57:40;99080.06;;;-0.38;80.09
21730;BME280;11027;51.030;13.812;2023-01-19T01:00:10;99075.66;;;-0.39;79.55
21730;BME280;11027;51.030;13.812;2023-01-19T01:02:37;99074.84;;;-0.39;79.30
21730;BME280;11027;51.030;13.812;2023-01-19T01:05:03;99074.53;;;-0.36;78.99
21730;BME280;11027;51.030;13.812;2023-01-19T01:07:31;99071.16;;;-0.38;78.70
21730;BME280;11027;51.030;13.812;2023-01-19T01:09:59;99065.09;;;-0.41;78.74
21730;BME280;11027;51.030;13.812;2023-01-19T01:12:24;99075.97;;;-0.42;78.39
21730;BME280;11027;51.030;13.812;2023-01-19T01:14:50;99073.41;;;-0.44;78.36
21730;BME280;11027;51.030;13.812;2023-01-19T01:17:15;99084.53;;;-0.48;78.13
21730;BME280;11027;51.030;13.812;2023-01-19T01:19:40;99095.25;;;-0.48;78.03
21730;BME280;11027;51.030;13.812;2023-01-19T01:22:07;99094.22;;;-0.57;78.16
21730;BME280;11027;51.030;13.812;2023-01-19T01:24:33;99094.16;;;-0.67;77.98
21730;BME280;11027;51.030;13.812;2023-01-19T01:26:58;99097.13;;;-0.70;78.29
21730;BME280;11027;51.030;13.812;2023-01-19T01:29:23;99092.75;;;-0.71;78.30
21730;BME280;11027;51.030;13.812;2023-01-19T01:31:49;99090.22;;;-0.72;78.29
21730;BME280;11027;51.030;13.812;2023-01-19T01:34:14;99095.72;;;-0.74;78.39
21730;BME280;11027;51.030;13.812;2023-01-19T01:36:40;99088.25;;;-0.70;78.07
21730;BME280;11027;51.030;13.812;2023-01-19T01:39:06;99096.13;;;-0.69;78.41
21730;BME280;11027;51.030;13.812;2023-01-19T01:41:31;99100.06;;;-0.73;78.77
21730;BME280;11027;51.030;13.812;2023-01-19T01:43:57;99091.06;;;-0.72;78.98
21730;BME280;11027;51.030;13.812;2023-01-19T01:46:25;99095.41;;;-0.71;78.94
21730;BME280;11027;51.030;13.812;2023-01-19T01:49:04;99085.72;;;-0.72;79.08
21730;BME280;11027;51.030;13.812;2023-01-19T01:51:39;99097.25;;;-0.71;79.19
21730;BME280;11027;51.030;13.812;2023-01-19T01:54:14;99105.41;;;-0.73;79.29
21730;BME280;11027;51.030;13.812;2023-01-19T01:56:49;99107.38;;;-0.75;79.44
21730;BME280;11027;51.030;13.812;2023-01-19T01:59:19;99112.72;;;-0.75;79.46
21730;BME280;11027;51.030;13.812;2023-01-19T02:01:51;99103.72;;;-0.74;79.50
21730;BME280;11027;51.030;13.812;2023-01-19T02:04:39;99109.34;;;-0.77;79.43
21730;BME280;11027;51.030;13.812;2023-01-19T02:07:07;99108.63;;;-0.79;79.44
21730;BME280;11027;51.030;13.812;2023-01-19T02:09:51;99111.84;;;-0.85;79.30
21730;BME280;11027;51.030;13.812;2023-01-19T02:12:35;99110.09;;;-0.96;79.10
21730;BME280;11027;51.030;13.812;2023-01-19T02:15:19;99107.84;;;-1.01;78.93
21730;BME280;11027;51.030;13.812;2023-01-19T02:17:45;99109.19;;;-1.06;78.94
21730;BME280;11027;51.030;13.812;2023-01-19T02:20:11;99108.75;;;-1.11;78.69
21730;BME280;11027;51.030;13.812;2023-01-19T02:22:46;99107.47;;;-1.17;78.72
21730;BME280;11027;51.030;13.812;2023-01-19T02:25:13;99113.34;;;-1.23;78.78
21730;BME280;11027;51.030;13.812;2023-01-19T02:27:39;99116.72;;;-1.21;78.90
21730;BME280;11027;51.030;13.812;2023-01-19T02:30:05;99115.28;;;-1.25;78.89
21730;BME280;11027;51.030;13.812;2023-01-19T02:32:31;99124.69;;;-1.31;79.37
21730;BME280;11027;51.030;13.812;2023-01-19T02:34:57;99130.97;;;-1.32;78.93
21730;BME280;11027;51.030;13.812;2023-01-19T02:37:23;99126.75;;;-1.34;79.14
21730;BME280;11027;51.030;13.812;2023-01-19T02:39:55;99128.00;;;-1.38;79.05
21730;BME280;11027;51.030;13.812;2023-01-19T02:42:26;99127.00;;;-1.37;79.09
21730;BME280;11027;51.030;13.812;2023-01-19T02:44:55;99126.03;;;-1.36;79.04
21730;BME280;11027;51.030;13.812;2023-01-19T02:47:21;99132.34;;;-1.37;79.31
21730;BME280;11027;51.030;13.812;2023-01-19T02:49:57;99128.81;;;-1.38;79.42
21730;BME280;11027;51.030;13.812;2023-01-19T02:52:23;99132.63;;;-1.41;79.41
21730;BME280;11027;51.030;13.812;2023-01-19T02:55:15;99130.19;;;-1.44;79.19
21730;BME280;11027;51.030;13.812;2023-01-19T03:01:00;99138.72;;;-1.50;79.42
21730;BME280;11027;51.030;13.812;2023-01-19T03:06:45;99144.84;;;-1.59;79.25
21730;BME280;11027;51.030;13.812;2023-01-19T03:09:31;99152.50;;;-1.66;79.10
21730;BME280;11027;51.030;13.812;2023-01-19T03:14:59;99158.75;;;-1.76;79.10
21730;BME280;11027;51.030;13.812;2023-01-19T03:17:27;99163.50;;;-1.80;79.35
21730;BME280;11027;51.030;13.812;2023-01-19T03:19:56;99169.94;;;-1.83;79.28
21730;BME280;11027;51.030;13.812;2023-01-19T03:22:25;99170.94;;;-1.84;79.18
21730;BME280;11027;51.030;13.812;2023-01-19T03:24:54;99168.75;;;-1.90;79.23
21730;BME280;11027;51.030;13.812;2023-01-19T03:27:25;99167.03;;;-1.91;79.23
21730;BME280;11027;51.030;13.812;2023-01-19T03:29:56;99175.78;;;-1.89;78.91
21730;BME280;11027;51.030;13.812;2023-01-19T03:32:27;99168.63;;;-1.88;78.78
21730;BME280;11027;51.030;13.812;2023-01-19T03:34:56;99176.03;;;-1.92;78.60
21730;BME280;11027;51.030;13.812;2023-01-19T03:37:23;99186.97;;;-1.95;78.72
21730;BME280;11027;51.030;13.812;2023-01-19T03:39:50;99188.91;;;-1.97;78.80
21730;BME280;11027;51.030;13.812;2023-01-19T03:42:16;99183.81;;;-2.00;78.88
21730;BME280;11027;51.030;13.812;2023-01-19T03:44:43;99180.41;;;-2.02;79.16
21730;BME280;11027;51.030;13.812;2023-01-19T03:47:10;99176.06;;;-2.03;79.10
21730;BME280;11027;51.030;13.812;2023-01-19T03:49:40;99173.50;;;-2.05;79.31
21730;BME280;11027;51.030;13.812;2023-01-19T03:52:07;99173.41;;;-2.03;79.38
21730;BME280;11027;51.030;13.812;2023-01-19T03:54:32;99179.44;;;-2.01;79.58
21730;BME280;11027;51.030;13.812;2023-01-19T03:56:58;99190.13;;;-2.01;79.88
21730;BME280;11027;51.030;13.812;2023-01-19T03:59:23;99182.97;;;-2.01;79.88
21730;BME280;11027;51.030;13.812;2023-01-19T04:01:49;99187.69;;;-2.04;79.85
21730;BME280;11027;51.030;13.812;2023-01-19T04:04:14;99187.97;;;-2.07;79.92
21730;BME280;11027;51.030;13.812;2023-01-19T04:06:40;99188.06;;;-2.09;79.82
21730;BME280;11027;51.030;13.812;2023-01-19T04:09:05;99192.81;;;-2.12;79.59
21730;BME280;11027;51.030;13.812;2023-01-19T04:11:30;99194.03;;;-2.16;79.77
21730;BME280;11027;51.030;13.812;2023-01-19T04:13:56;99197.41;;;-2.14;79.54
21730;BME280;11027;51.030;13.812;2023-01-19T04:16:21;99197.41;;;-2.14;79.62
21730;BME280;11027;51.030;13.812;2023-01-19T04:18:48;99185.28;;;-2.18;79.55
21730;BME280;11027;51.030;13.812;2023-01-19T04:21:14;99182.16;;;-2.24;79.38
21730;BME280;11027;51.030;13.812;2023-01-19T04:23:40;99184.94;;;-2.25;79.68
21730;BME280;11027;51.030;13.812;2023-01-19T04:26:06;99181.56;;;-2.27;79.58
21730;BME280;11027;51.030;13.812;2023-01-19T04:28:33;99178.03;;;-2.28;79.43
21730;BME280;11027;51.030;13.812;2023-01-19T04:30:59;99172.22;;;-2.33;79.48
21730;BME280;11027;51.030;13.812;2023-01-19T04:33:26;99178.41;;;-2.32;79.53
21730;BME280;11027;51.030;13.812;2023-01-19T04:35:53;99176.59;;;-2.32;79.59
21730;BME280;11027;51.030;13.812;2023-01-19T04:38:19;99175.00;;;-2.34;79.58
21730;BME280;11027;51.030;13.812;2023-01-19T04:40:45;99188.72;;;-2.39;79.59
21730;BME280;11027;51.030;13.812;2023-01-19T04:43:10;99181.94;;;-2.43;79.40
21730;BME280;11027;51.030;13.812;2023-01-19T04:45:36;99183.13;;;-2.47;79.26
21730;BME280;11027;51.030;13.812;2023-01-19T04:48:02;99186.06;;;-2.50;79.29
21730;BME280;11027;51.030;13.812;2023-01-19T04:50:31;99184.34;;;-2.51;79.06
21730;BME280;11027;51.030;13.812;2023-01-19T04:52:56;99180.97;;;-2.53;78.82
21730;BME280;11027;51.030;13.812;2023-01-19T04:55:21;99196.22;;;-2.55;78.93
21730;BME280;11027;51.030;13.812;2023-01-19T04:57:47;99185.94;;;-2.60;78.87
21730;BME280;11027;51.030;13.812;2023-01-19T05:00:12;99188.72;;;-2.62;78.82
21730;BME280;11027;51.030;13.812;2023-01-19T05:02:38;99185.09;;;-2.60;78.67
21730;BME280;11027;51.030;13.812;2023-01-19T05:05:03;99190.44;;;-2.60;78.47
21730;BME280;11027;51.030;13.812;2023-01-19T05:07:29;99190.88;;;-2.67;78.29
21730;BME280;11027;51.030;13.812;2023-01-19T05:09:54;99188.22;;;-2.67;78.39
21730;BME280;11027;51.030;13.812;2023-01-19T05:12:20;99191.16;;;-2.70;78.43
21730;BME280;11027;51.030;13.812;2023-01-19T05:14:45;99185.19;;;-2.73;78.75
21730;BME280;11027;51.030;13.812;2023-01-19T05:17:11;99189.44;;;-2.71;78.81
21730;BME280;11027;51.030;13.812;2023-01-19T05:19:36;99176.81;;;-2.69;78.71
21730;BME280;11027;51.030;13.812;2023-01-19T05:22:02;99187.25;;;-2.66;78.78
21730;BME280;11027;51.030;13.812;2023-01-19T05:24:28;99181.31;;;-2.69;78.67
21730;BME280;11027;51.030;13.812;2023-01-19T05:26:54;99191.97;;;-2.69;78.51
21730;BME280;11027;51.030;13.812;2023-01-19T05:29:19;99178.75;;;-2.71;78.51
21730;BME280;11027;51.030;13.812;2023-01-19T05:31:44;99187.88;;;-2.73;78.48
21730;BME280;11027;51.030;13.812;2023-01-19T05:34:10;99192.47;;;-2.75;78.62
21730;BME280;11027;51.030;13.812;2023-01-19T05:36:36;99178.78;;;-2.82;78.42
21730;BME280;11027;51.030;13.812;2023-01-19T05:39:02;99180.72;;;-2.84;78.49
21730;BME280;11027;51.030;13.812;2023-01-19T05:41:27;99187.88;;;-2.85;78.33
21730;BME280;11027;51.030;13.812;2023-01-19T05:43:53;99177.53;;;-2.89;78.22
21730;BME280;11027;51.030;13.812;2023-01-19T05:46:18;99177.06;;;-2.94;77.98
21730;BME280;11027;51.030;13.812;2023-01-19T05:48:44;99180.69;;;-2.95;78.13
21730;BME280;11027;51.030;13.812;2023-01-19T05:51:09;99180.94;;;-2.98;78.09
21730;BME280;11027;51.030;13.812;2023-01-19T05:53:34;99181.16;;;-3.02;78.19
21730;BME280;11027;51.030;13.812;2023-01-19T05:56:03;99173.16;;;-3.02;78.01
21730;BME280;11027;51.030;13.812;2023-01-19T05:58:29;99178.84;;;-3.06;77.84
21730;BME280;11027;51.030;13.812;2023-01-19T06:00:55;99186.84;;;-3.06;77.99
21730;BME280;11027;51.030;13.812;2023-01-19T06:03:20;99194.00;;;-3.07;77.58
21730;BME280;11027;51.030;13.812;2023-01-19T06:05:45;99190.59;;;-3.09;77.43
21730;BME280;11027;51.030;13.812;2023-01-19T06:08:11;99195.06;;;-3.09;77.62
21730;BME280;11027;51.030;13.812;2023-01-19T06:10:36;99198.72;;;-3.10;77.66
21730;BME280;11027;51.030;13.812;2023-01-19T06:13:01;99195.94;;;-3.09;77.54
21730;BME280;11027;51.030;13.812;2023-01-19T06:15:27;99197.88;;;-3.11;77.80
21730;BME280;11027;51.030;13.812;2023-01-19T06:17:52;99205.13;;;-3.13;77.88
21730;BME280;11027;51.030;13.812;2023-01-19T06:20:17;99208.53;;;-3.11;77.76
21730;BME280;11027;51.030;13.812;2023-01-19T06:22:43;99212.41;;;-3.15;77.67
21730;BME280;11027;51.030;13.812;2023-01-19T06:25:08;99221.59;;;-3.19;77.74
21730;BME280;11027;51.030;13.812;2023-01-19T06:27:34;99228.34;;;-3.26;77.72
21730;BME280;11027;51.030;13.812;2023-01-19T06:30:00;99230.47;;;-3.31;78.07
21730;BME280;11027;51.030;13.812;2023-01-19T06:32:26;99233.28;;;-3.33;78.05
21730;BME280;11027;51.030;13.812;2023-01-19T06:34:51;99233.59;;;-3.37;78.24
21730;BME280;11027;51.030;13.812;2023-01-19T06:37:16;99231.19;;;-3.40;78.32
21730;BME280;11027;51.030;13.812;2023-01-19T06:39:42;99248.13;;;-3.42;78.21
21730;BME280;11027;51.030;13.812;2023-01-19T06:42:09;99239.19;;;-3.40;78.26
21730;BME280;11027;51.030;13.812;2023-01-19T06:44:34;99243.19;;;-3.35;77.94
21730;BME280;11027;51.030;13.812;2023-01-19T06:47:00;99244.03;;;-3.34;77.74
21730;BME280;11027;51.030;13.812;2023-01-19T06:49:25;99251.06;;;-3.33;77.92
21730;BME280;11027;51.030;13.812;2023-01-19T06:51:50;99251.78;;;-3.31;77.68
21730;BME280;11027;51.030;13.812;2023-01-19T06:54:16;99254.25;;;-3.28;77.17
21730;BME280;11027;51.030;13.812;2023-01-19T06:56:41;99250.84;;;-3.30;77.20
21730;BME280;11027;51.030;13.812;2023-01-19T06:59:07;99258.94;;;-3.32;77.13
21730;BME280;11027;51.030;13.812;2023-01-19T07:01:34;99254.69;;;-3.34;77.10
21730;BME280;11027;51.030;13.812;2023-01-19T07:03:59;99263.63;;;-3.35;77.21
21730;BME280;11027;51.030;13.812;2023-01-19T07:06:24;99255.66;;;-3.35;77.12
21730;BME280;11027;51.030;13.812;2023-01-19T07:08:50;99273.09;;;-3.31;77.03
21730;BME280;11027;51.030;13.812;2023-01-19T07:11:15;99273.81;;;-3.29;76.90
21730;BME280;11027;51.030;13.812;2023-01-19T07:13:40;99270.44;;;-3.31;76.84
21730;BME280;11027;51.030;13.812;2023-01-19T07:16:11;99268.00;;;-3.34;76.73
21730;BME280;11027;51.030;13.812;2023-01-19T07:18:37;99267.50;;;-3.39;76.65
21730;BME280;11027;51.030;13.812;2023-01-19T07:21:03;99267.63;;;-3.41;76.85
21730;BME280;11027;51.030;13.812;2023-01-19T07:23:29;99269.22;;;-3.38;76.94
21730;BME280;11027;51.030;13.812;2023-01-19T07:25:58;99272.59;;;-3.36;76.60
21730;BME280;11027;51.030;13.812;2023-01-19T07:28:26;99281.34;;;-3.34;76.54
21730;BME280;11027;51.030;13.812;2023-01-19T07:30:52;99279.41;;;-3.32;76.41
21730;BME280;11027;51.030;13.812;2023-01-19T07:33:17;99285.13;;;-3.26;76.37
21730;BME280;11027;51.030;13.812;2023-01-19T07:35:48;99282.13;;;-3.21;76.01
21730;BME280;11027;51.030;13.812;2023-01-19T07:38:15;99274.00;;;-3.19;76.13
21730;BME280;11027;51.030;13.812;2023-01-19T07:40:40;99285.28;;;-3.16;76.01
21730;BME280;11027;51.030;13.812;2023-01-19T07:43:06;99281.66;;;-3.15;75.67
21730;BME280;11027;51.030;13.812;2023-01-19T07:45:31;99279.94;;;-3.16;75.71
21730;BME280;11027;51.030;13.812;2023-01-19T07:47:57;99281.88;;;-3.18;75.77
21730;BME280;11027;51.030;13.812;2023-01-19T07:50:22;99285.53;;;-3.19;75.91
21730;BME280;11027;51.030;13.812;2023-01-19T07:52:50;99286.38;;;-3.18;75.81
21730;BME280;11027;51.030;13.812;2023-01-19T07:55:18;99292.53;;;-3.18;75.82
21730;BME280;11027;51.030;13.812;2023-01-19T07:57:43;99293.28;;;-3.16;75.92
21730;BME280;11027;51.030;13.812;2023-01-19T08:00:09;99280.59;;;-3.12;75.83
21730;BME280;11027;51.030;13.812;2023-01-19T08:02:34;99283.41;;;-3.03;75.78
21730;BME280;11027;51.030;13.812;2023-01-19T08:05:01;99299.66;;;-2.94;75.97
21730;BME280;11027;51.030;13.812;2023-01-19T08:07:27;99291.94;;;-2.86;75.62
21730;BME280;11027;51.030;13.812;2023-01-19T08:09:52;99299.81;;;-2.85;75.52
21730;BME280;11027;51.030;13.812;2023-01-19T08:12:17;99298.22;;;-2.87;75.45
21730;BME280;11027;51.030;13.812;2023-01-19T08:14:43;99306.09;;;-2.86;75.48
21730;BME280;11027;51.030;13.812;2023-01-19T08:17:12;99300.78;;;-2.86;75.50
21730;BME280;11027;51.030;13.812;2023-01-19T08:19:37;99306.22;;;-2.87;75.72
21730;BME280;11027;51.030;13.812;2023-01-19T08:22:03;99308.66;;;-2.84;75.96
21730;BME280;11027;51.030;13.812;2023-01-19T08:24:28;99315.69;;;-2.83;75.89
21730;BME280;11027;51.030;13.812;2023-01-19T08:27:00;99302.88;;;-2.78;76.17
21730;BME280;11027;51.030;13.812;2023-01-19T08:29:27;99309.19;;;-2.68;75.89
21730;BME280;11027;51.030;13.812;2023-01-19T08:31:54;99306.69;;;-2.58;75.90
21730;BME280;11027;51.030;13.812;2023-01-19T08:34:21;99302.69;;;-2.52;75.79
21730;BME280;11027;51.030;13.812;2023-01-19T08:36:46;99305.84;;;-2.47;75.73
21730;BME280;11027;51.030;13.812;2023-01-19T08:39:12;99304.75;;;-2.45;75.80
21730;BME280;11027;51.030;13.812;2023-01-19T08:41:37;99308.75;;;-2.39;75.55
21730;BME280;11027;51.030;13.812;2023-01-19T08:44:02;99316.28;;;-2.33;75.51
21730;BME280;11027;51.030;13.812;2023-01-19T08:46:28;99316.78;;;-2.28;75.72
21730;BME280;11027;51.030;13.812;2023-01-19T08:48:53;99311.09;;;-2.23;75.57
21730;BME280;11027;51.030;13.812;2023-01-19T08:51:19;99309.03;;;-2.19;75.72
21730;BME280;11027;51.030;13.812;2023-01-19T08:53:45;99313.16;;;-2.15;75.59
21730;BME280;11027;51.030;13.812;2023-01-19T08:56:11;99314.34;;;-2.08;75.63
21730;BME280;11027;51.030;13.812;2023-01-19T08:58:42;99306.84;;;-2.03;75.54
21730;BME280;11027;51.030;13.812;2023-01-19T09:01:08;99312.44;;;-1.95;75.50
21730;BME280;11027;51.030;13.812;2023-01-19T09:03:34;99303.19;;;-1.91;75.62
21730;BME280;11027;51.030;13.812;2023-01-19T09:06:01;99300.03;;;-1.85;75.34
21730;BME280;11027;51.030;13.812;2023-01-19T09:08:28;99303.22;;;-1.79;75.63
21730;BME280;11027;51.030;13.812;2023-01-19T09:10:54;99298.31;;;-1.74;75.54
21730;BME280;11027;51.030;13.812;2023-01-19T09:13:19;99302.22;;;-1.67;75.41
21730;BME280;11027;51.030;13.812;2023-01-19T09:15:45;99303.41;;;-1.60;75.32
21730;BME280;11027;51.030;13.812;2023-01-19T09:18:13;99308.50;;;-1.57;75.26
21730;BME280;11027;51.030;13.812;2023-01-19T09:20:40;99306.31;;;-1.52;75.22
21730;BME280;11027;51.030;13.812;2023-01-19T09:23:10;99311.13;;;-1.46;75.40
21730;BME280;11027;51.030;13.812;2023-01-19T09:25:37;99314.03;;;-1.37;75.30
21730;BME280;11027;51.030;13.812;2023-01-19T09:28:04;99309.91;;;-1.30;75.36
21730;BME280;11027;51.030;13.812;2023-01-19T09:30:30;99305.03;;;-1.25;75.30
21730;BME280;11027;51.030;13.812;2023-01-19T09:33:01;99305.75;;;-1.23;75.38
21730;BME280;11027;51.030;13.812;2023-01-19T09:35:26;99300.41;;;-1.23;75.50
21730;BME280;11027;51.030;13.812;2023-01-19T09:37:52;99302.59;;;-1.17;75.38
21730;BME280;11027;51.030;13.812;2023-01-19T09:40:17;99299.41;;;-1.11;75.45
21730;BME280;11027;51.030;13.812;2023-01-19T09:45:38;99300.19;;;-0.99;75.35
21730;BME280;11027;51.030;13.812;2023-01-19T09:48:42;99299.81;;;-0.94;75.32
21730;BME280;11027;51.030;13.812;2023-01-19T09:51:13;99303.94;;;-0.90;75.32
21730;BME280;11027;51.030;13.812;2023-01-19T09:56:35;99292.38;;;-0.91;75.35
21730;BME280;11027;51.030;13.812;2023-01-19T09:59:17;99294.19;;;-0.91;75.39
21730;BME280;11027;51.030;13.812;2023-01-19T10:01:50;99299.53;;;-0.91;75.63
21730;BME280;11027;51.030;13.812;2023-01-19T10:04:29;99297.59;;;-0.89;75.69
21730;BME280;11027;51.030;13.812;2023-01-19T10:07:02;99299.03;;;-0.85;75.73
21730;BME280;11027;51.030;13.812;2023-01-19T10:09:36;99289.91;;;-0.83;75.87
21730;BME280;11027;51.030;13.812;2023-01-19T10:15:01;99293.75;;;-0.75;76.08
21730;BME280;11027;51.030;13.812;2023-01-19T10:17:46;99293.22;;;-0.69;76.17
21730;BME280;11027;51.030;13.812;2023-01-19T10:20:23;99288.22;;;-0.63;76.27
21730;BME280;11027;51.030;13.812;2023-01-19T10:22:51;99277.13;;;-0.58;76.40
21730;BME280;11027;51.030;13.812;2023-01-19T10:25:19;99285.47;;;-0.51;76.42
21730;BME280;11027;51.030;13.812;2023-01-19T10:27:45;99280.97;;;-0.51;76.49
21730;BME280;11027;51.030;13.812;2023-01-19T10:30:19;99276.91;;;-0.45;76.40
21730;BME280;11027;51.030;13.812;2023-01-19T10:32:46;99277.63;;;-0.43;76.40
21730;BME280;11027;51.030;13.812;2023-01-19T10:35:18;99277.09;;;-0.37;76.38
21730;BME280;11027;51.030;13.812;2023-01-19T10:37:50;99278.53;;;-0.33;76.36
21730;BME280;11027;51.030;13.812;2023-01-19T10:40:30;99280.25;;;-0.32;76.31
21730;BME280;11027;51.030;13.812;2023-01-19T10:42:57;99267.56;;;-0.30;76.18
21730;BME280;11027;51.030;13.812;2023-01-19T10:45:24;99263.66;;;-0.26;76.33
21730;BME280;11027;51.030;13.812;2023-01-19T10:47:52;99271.41;;;-0.23;76.32
21730;BME280;11027;51.030;13.812;2023-01-19T10:50:34;99273.81;;;-0.19;76.27
21730;BME280;11027;51.030;13.812;2023-01-19T10:53:01;99267.22;;;-0.15;76.39
21730;BME280;11027;51.030;13.812;2023-01-19T10:55:35;99265.97;;;-0.11;76.48
21730;BME280;11027;51.030;13.812;2023-01-19T10:58:02;99261.91;;;-0.06;76.35
21730;BME280;11027;51.030;13.812;2023-01-19T11:00:37;99262.34;;;-0.01;76.26
21730;BME280;11027;51.030;13.812;2023-01-19T11:05:48;99262.66;;;0.06;76.04
21730;BME280;11027;51.030;13.812;2023-01-19T11:08:22;99264.09;;;0.10;75.96
21730;BME280;11027;51.030;13.812;2023-01-19T11:11:03;99263.78;;;0.13;76.11
21730;BME280;11027;51.030;13.812;2023-01-19T11:13:29;99266.94;;;0.18;76.03
21730;BME280;11027;51.030;13.812;2023-01-19T11:16:04;99270.88;;;0.24;76.12
21730;BME280;11027;51.030;13.812;2023-01-19T11:18:32;99267.81;;;0.29;76.16
21730;BME280;11027;51.030;13.812;2023-01-19T11:21:01;99268.22;;;0.34;76.12
21730;BME280;11027;51.030;13.812;2023-01-19T11:23:31;99266.97;;;0.38;76.16
21730;BME280;11027;51.030;13.812;2023-01-19T11:26:00;99271.06;;;0.42;76.11
21730;BME280;11027;51.030;13.812;2023-01-19T11:28:30;99268.97;;;0.46;76.06
21730;BME280;11027;51.030;13.812;2023-01-19T11:33:57;99265.88;;;0.60;75.95
21730;BME280;11027;51.030;13.812;2023-01-19T11:36:31;99264.22;;;0.69;75.85
21730;BME280;11027;51.030;13.812;2023-01-19T11:38:59;99265.34;;;0.76;75.76
21730;BME280;11027;51.030;13.812;2023-01-19T11:41:28;99271.53;;;0.86;75.67
21730;BME280;11027;51.030;13.812;2023-01-19T11:43:56;99274.38;;;0.94;75.67
21730;BME280;11027;51.030;13.812;2023-01-19T11:46:23;99275.91;;;1.07;75.52
21730;BME280;11027;51.030;13.812;2023-01-19T11:49:14;99274.06;;;1.17;75.49
21730;BME280;11027;51.030;13.812;2023-01-19T11:51:52;99278.16;;;1.31;75.38
21730;BME280;11027;51.030;13.812;2023-01-19T11:54:24;99270.09;;;1.40;75.36
21730;BME280;11027;51.030;13.812;2023-01-19T11:56:52;99273.47;;;1.52;75.41
21730;BME280;11027;51.030;13.812;2023-01-19T11:59:19;99267.22;;;1.62;75.42
21730;BME280;11027;51.030;13.812;2023-01-19T12:01:50;99263.81;;;1.69;75.16
21730;BME280;11027;51.030;13.812;2023-01-19T12:04:24;99263.22;;;1.75;75.03
21730;BME280;11027;51.030;13.812;2023-01-19T12:06:54;99257.28;;;1.82;74.94
21730;BME280;11027;51.030;13.812;2023-01-19T12:09:24;99263.44;;;1.92;74.63
21730;BME280;11027;51.030;13.812;2023-01-19T12:12:00;99266.97;;;2.02;74.53
21730;BME280;11027;51.030;13.812;2023-01-19T12:14:34;99262.94;;;2.16;74.65
21730;BME280;11027;51.030;13.812;2023-01-19T12:17:02;99262.59;;;2.29;74.54
21730;BME280;11027;51.030;13.812;2023-01-19T12:19:48;99261.09;;;2.44;74.28
21730;BME280;11027;51.030;13.812;2023-01-19T12:22:17;99261.03;;;2.54;73.77
21730;BME280;11027;51.030;13.812;2023-01-19T12:27:45;99258.44;;;2.80;73.04
21730;BME280;11027;51.030;13.812;2023-01-19T12:30:23;99258.91;;;2.93;72.73
21730;BME280;11027;51.030;13.812;2023-01-19T12:32:49;99260.38;;;3.06;72.21
21730;BME280;11027;51.030;13.812;2023-01-19T12:35:55;99261.81;;;3.18;71.37
21730;BME280;11027;51.030;13.812;2023-01-19T12:38:29;99258.03;;;3.29;71.25
21730;BME280;11027;51.030;13.812;2023-01-19T12:49:48;99256.06;;;3.57;66.52
21730;BME280;11027;51.030;13.812;2023-01-19T12:52:39;99257.44;;;3.61;66.20
21730;BME280;11027;51.030;13.812;2023-01-19T13:02:47;99248.47;;;3.78;67.40
21730;BME280;11027;51.030;13.812;2023-01-19T13:13:39;99243.81;;;3.89;66.29
21730;BME280;11027;51.030;13.812;2023-01-19T13:18:53;99232.91;;;3.98;64.73
21730;BME280;11027;51.030;13.812;2023-01-19T13:21:28;99236.81;;;4.04;63.63
21730;BME280;11027;51.030;13.812;2023-01-19T13:23:56;99229.72;;;4.03;61.58
21730;BME280;11027;51.030;13.812;2023-01-19T13:29:29;99237.56;;;4.23;62.77
21730;BME280;11027;51.030;13.812;2023-01-19T13:32:15;99237.59;;;4.31;62.23
21730;BME280;11027;51.030;13.812;2023-01-19T13:34:50;99230.88;;;4.43;62.59
21730;BME280;11027;51.030;13.812;2023-01-19T13:37:19;99233.59;;;4.51;61.55
21730;BME280;11027;51.030;13.812;2023-01-19T13:39:47;99233.25;;;4.54;59.81
21730;BME280;11027;51.030;13.812;2023-01-19T13:42:35;99227.72;;;4.64;58.87
21730;BME280;11027;51.030;13.812;2023-01-19T13:45:06;99237.38;;;4.75;58.66
21730;BME280;11027;51.030;13.812;2023-01-19T13:47:45;99231.78;;;4.76;57.41
21730;BME280;11027;51.030;13.812;2023-01-19T13:50:20;99229.63;;;4.88;56.99
21730;BME280;11027;51.030;13.812;2023-01-19T13:52:46;99228.97;;;5.03;56.69
21730;BME280;11027;51.030;13.812;2023-01-19T13:55:14;99227.63;;;5.31;55.94
21730;BME280;11027;51.030;13.812;2023-01-19T13:57:44;99237.72;;;5.54;55.92